Alumbrera, Argentina
Current Conditions -  °F | °C
As of 2:00 AM on Tuesday 21 Oct 2014 (Local Time) from SANT Reporting Station
Clear Clear  
Wind Chill: 61°   Ceiling: Unl
Heat Index: 61°   Visibility: 5mi
Dew Point: 59°   Wind: 6mph
Humidity: 94%   Direction: 320°NW
Pressure: 30.09"   Gusts: NA
Location:  27.52°S, 66.03°W
Report Text: SANT 210500Z 32005KT 8000 NSC 16/15 Q1019
Loading
Personal Weather Stations






























Interactive Weather Map New forecast layout! Learn more

10-Day Weather Forecast

Advertisements
Track Severe Weather on mobile